sensor_id;sensor_type;location;lat;lon;timestamp;temperature;humidity
546;DHT22;259;53.304;9.816;2024-03-17T00:01:03;13.50;77.80
546;DHT22;259;53.304;9.816;2024-03-17T00:03:32;13.50;77.80
546;DHT22;259;53.304;9.816;2024-03-17T00:05:59;13.50;78.20
546;DHT22;259;53.304;9.816;2024-03-17T00:08:26;13.50;78.30
546;DHT22;259;53.304;9.816;2024-03-17T00:10:55;13.40;78.40
546;DHT22;259;53.304;9.816;2024-03-17T00:13:21;13.40;78.50
546;DHT22;259;53.304;9.816;2024-03-17T00:15:48;13.40;78.70
546;DHT22;259;53.304;9.816;2024-03-17T00:18:14;13.40;78.80
546;DHT22;259;53.304;9.816;2024-03-17T00:20:40;13.30;78.90
546;DHT22;259;53.304;9.816;2024-03-17T00:23:06;13.20;78.30
546;DHT22;259;53.304;9.816;2024-03-17T00:25:33;13.30;79.20
546;DHT22;259;53.304;9.816;2024-03-17T00:28:00;13.30;79.30
546;DHT22;259;53.304;9.816;2024-03-17T00:30:26;13.30;79.30
546;DHT22;259;53.304;9.816;2024-03-17T00:32:52;13.20;79.30
546;DHT22;259;53.304;9.816;2024-03-17T00:35:18;13.20;79.50
546;DHT22;259;53.304;9.816;2024-03-17T00:37:49;13.20;79.60
546;DHT22;259;53.304;9.816;2024-03-17T00:40:18;13.20;79.80
546;DHT22;259;53.304;9.816;2024-03-17T00:42:44;13.20;79.80
546;DHT22;259;53.304;9.816;2024-03-17T00:45:10;13.10;79.70
546;DHT22;259;53.304;9.816;2024-03-17T00:47:37;13.10;79.90
546;DHT22;259;53.304;9.816;2024-03-17T00:50:03;13.10;80.00
546;DHT22;259;53.304;9.816;2024-03-17T00:52:31;13.10;80.10
546;DHT22;259;53.304;9.816;2024-03-17T00:54:57;13.10;79.90
546;DHT22;259;53.304;9.816;2024-03-17T00:57:23;13.10;80.20
546;DHT22;259;53.304;9.816;2024-03-17T00:59:50;13.00;80.20
546;DHT22;259;53.304;9.816;2024-03-17T01:02:17;13.00;80.40
546;DHT22;259;53.304;9.816;2024-03-17T01:04:43;13.00;80.40
546;DHT22;259;53.304;9.816;2024-03-17T01:07:10;13.00;80.50
546;DHT22;259;53.304;9.816;2024-03-17T01:09:36;13.00;80.50
546;DHT22;259;53.304;9.816;2024-03-17T01:12:02;13.00;80.40
546;DHT22;259;53.304;9.816;2024-03-17T01:14:28;13.00;80.50
546;DHT22;259;53.304;9.816;2024-03-17T01:16:55;13.00;80.40
546;DHT22;259;53.304;9.816;2024-03-17T01:19:22;13.00;80.50
546;DHT22;259;53.304;9.816;2024-03-17T01:21:48;13.00;80.40
546;DHT22;259;53.304;9.816;2024-03-17T01:24:13;13.00;80.40
546;DHT22;259;53.304;9.816;2024-03-17T01:26:39;13.00;80.50
546;DHT22;259;53.304;9.816;2024-03-17T01:29:05;13.00;80.60
546;DHT22;259;53.304;9.816;2024-03-17T01:31:30;12.90;80.50
546;DHT22;259;53.304;9.816;2024-03-17T01:33:56;12.90;80.60
546;DHT22;259;53.304;9.816;2024-03-17T01:36:22;12.90;80.70
546;DHT22;259;53.304;9.816;2024-03-17T01:38:47;12.80;80.80
546;DHT22;259;53.304;9.816;2024-03-17T01:41:13;12.80;80.90
546;DHT22;259;53.304;9.816;2024-03-17T01:43:40;12.80;81.00
546;DHT22;259;53.304;9.816;2024-03-17T01:46:06;12.80;81.30
546;DHT22;259;53.304;9.816;2024-03-17T01:48:38;12.80;81.30
546;DHT22;259;53.304;9.816;2024-03-17T01:51:05;12.70;81.40
546;DHT22;259;53.304;9.816;2024-03-17T01:53:31;12.70;81.40
546;DHT22;259;53.304;9.816;2024-03-17T01:55:58;12.70;81.40
546;DHT22;259;53.304;9.816;2024-03-17T01:58:30;12.70;81.40
546;DHT22;259;53.304;9.816;2024-03-17T02:00:56;12.70;81.50
546;DHT22;259;53.304;9.816;2024-03-17T02:03:22;12.70;81.60
546;DHT22;259;53.304;9.816;2024-03-17T02:05:48;12.60;81.60
546;DHT22;259;53.304;9.816;2024-03-17T02:08:14;12.60;81.70
546;DHT22;259;53.304;9.816;2024-03-17T02:10:39;12.60;81.80
546;DHT22;259;53.304;9.816;2024-03-17T02:13:05;12.60;82.00
546;DHT22;259;53.304;9.816;2024-03-17T02:15:32;12.60;82.00
546;DHT22;259;53.304;9.816;2024-03-17T02:17:58;12.60;82.70
546;DHT22;259;53.304;9.816;2024-03-17T02:20:24;12.50;81.80
546;DHT22;259;53.304;9.816;2024-03-17T02:23:10;12.50;81.90
546;DHT22;259;53.304;9.816;2024-03-17T02:25:36;12.50;82.00
546;DHT22;259;53.304;9.816;2024-03-17T02:28:02;12.50;82.10
546;DHT22;259;53.304;9.816;2024-03-17T02:30:28;12.50;82.20
546;DHT22;259;53.304;9.816;2024-03-17T02:32:55;12.40;82.20
546;DHT22;259;53.304;9.816;2024-03-17T02:35:25;12.40;82.30
546;DHT22;259;53.304;9.816;2024-03-17T02:37:51;12.40;82.30
546;DHT22;259;53.304;9.816;2024-03-17T02:40:17;12.40;82.40
546;DHT22;259;53.304;9.816;2024-03-17T02:42:44;12.40;82.50
546;DHT22;259;53.304;9.816;2024-03-17T02:45:11;12.40;82.40
546;DHT22;259;53.304;9.816;2024-03-17T02:47:40;12.30;82.40
546;DHT22;259;53.304;9.816;2024-03-17T02:50:07;12.30;82.40
546;DHT22;259;53.304;9.816;2024-03-17T02:52:34;12.30;82.60
546;DHT22;259;53.304;9.816;2024-03-17T02:55:00;12.30;82.70
546;DHT22;259;53.304;9.816;2024-03-17T02:57:26;12.20;82.70
546;DHT22;259;53.304;9.816;2024-03-17T02:59:55;12.30;82.70
546;DHT22;259;53.304;9.816;2024-03-17T03:02:22;12.20;82.80
546;DHT22;259;53.304;9.816;2024-03-17T03:04:48;12.20;82.70
546;DHT22;259;53.304;9.816;2024-03-17T03:07:13;12.20;82.80
546;DHT22;259;53.304;9.816;2024-03-17T03:09:39;12.20;82.90
546;DHT22;259;53.304;9.816;2024-03-17T03:12:05;12.20;82.90
546;DHT22;259;53.304;9.816;2024-03-17T03:14:33;12.20;83.00
546;DHT22;259;53.304;9.816;2024-03-17T03:16:59;12.20;83.10
546;DHT22;259;53.304;9.816;2024-03-17T03:19:26;12.20;83.00
546;DHT22;259;53.304;9.816;2024-03-17T03:21:52;12.10;82.90
546;DHT22;259;53.304;9.816;2024-03-17T03:24:17;12.10;83.00
546;DHT22;259;53.304;9.816;2024-03-17T03:26:43;12.10;83.10
546;DHT22;259;53.304;9.816;2024-03-17T03:29:10;12.10;83.10
546;DHT22;259;53.304;9.816;2024-03-17T03:31:36;12.10;83.20
546;DHT22;259;53.304;9.816;2024-03-17T03:34:04;12.10;83.20
546;DHT22;259;53.304;9.816;2024-03-17T03:36:33;12.00;83.10
546;DHT22;259;53.304;9.816;2024-03-17T03:39:00;12.00;83.40
546;DHT22;259;53.304;9.816;2024-03-17T03:41:29;12.00;83.20
546;DHT22;259;53.304;9.816;2024-03-17T03:43:55;12.00;83.40
546;DHT22;259;53.304;9.816;2024-03-17T03:46:21;12.00;83.40
546;DHT22;259;53.304;9.816;2024-03-17T03:48:46;12.00;83.50
546;DHT22;259;53.304;9.816;2024-03-17T03:51:12;11.90;83.40
546;DHT22;259;53.304;9.816;2024-03-17T03:53:39;11.90;83.50
546;DHT22;259;53.304;9.816;2024-03-17T03:56:05;11.90;83.50
546;DHT22;259;53.304;9.816;2024-03-17T03:58:35;11.90;83.50
546;DHT22;259;53.304;9.816;2024-03-17T04:01:08;11.90;83.50
546;DHT22;259;53.304;9.816;2024-03-17T04:03:36;11.90;83.60
546;DHT22;259;53.304;9.816;2024-03-17T04:06:06;11.90;84.40
546;DHT22;259;53.304;9.816;2024-03-17T04:08:35;11.90;83.70
546;DHT22;259;53.304;9.816;2024-03-17T04:11:02;11.80;83.60
546;DHT22;259;53.304;9.816;2024-03-17T04:13:29;11.80;83.60
546;DHT22;259;53.304;9.816;2024-03-17T04:15:55;11.80;83.50
546;DHT22;259;53.304;9.816;2024-03-17T04:18:23;11.80;83.60
546;DHT22;259;53.304;9.816;2024-03-17T04:20:53;11.80;83.80
546;DHT22;259;53.304;9.816;2024-03-17T04:23:22;11.80;83.90
546;DHT22;259;53.304;9.816;2024-03-17T04:25:49;11.70;83.90
546;DHT22;259;53.304;9.816;2024-03-17T04:28:16;11.70;83.90
546;DHT22;259;53.304;9.816;2024-03-17T04:30:42;11.70;83.80
546;DHT22;259;53.304;9.816;2024-03-17T04:33:08;11.70;83.90
546;DHT22;259;53.304;9.816;2024-03-17T04:35:36;11.70;83.90
546;DHT22;259;53.304;9.816;2024-03-17T04:38:02;11.70;84.10
546;DHT22;259;53.304;9.816;2024-03-17T04:40:28;11.70;84.10
546;DHT22;259;53.304;9.816;2024-03-17T04:42:54;11.70;84.00
546;DHT22;259;53.304;9.816;2024-03-17T04:45:20;11.60;84.10
546;DHT22;259;53.304;9.816;2024-03-17T04:47:45;11.60;83.90
546;DHT22;259;53.304;9.816;2024-03-17T04:50:12;11.60;84.20
546;DHT22;259;53.304;9.816;2024-03-17T04:52:38;11.60;84.30
546;DHT22;259;53.304;9.816;2024-03-17T04:55:04;11.60;84.20
546;DHT22;259;53.304;9.816;2024-03-17T04:57:30;11.60;84.30
546;DHT22;259;53.304;9.816;2024-03-17T04:59:55;11.50;84.10
546;DHT22;259;53.304;9.816;2024-03-17T05:02:21;11.50;84.10
546;DHT22;259;53.304;9.816;2024-03-17T05:04:48;11.50;84.20
546;DHT22;259;53.304;9.816;2024-03-17T05:07:15;11.50;84.20
546;DHT22;259;53.304;9.816;2024-03-17T05:09:41;11.50;84.20
546;DHT22;259;53.304;9.816;2024-03-17T05:12:09;11.50;84.30
546;DHT22;259;53.304;9.816;2024-03-17T05:14:35;11.50;84.40
546;DHT22;259;53.304;9.816;2024-03-17T05:17:01;11.50;84.50
546;DHT22;259;53.304;9.816;2024-03-17T05:19:27;11.40;84.50
546;DHT22;259;53.304;9.816;2024-03-17T05:21:52;11.40;84.60
546;DHT22;259;53.304;9.816;2024-03-17T05:24:18;11.40;84.40
546;DHT22;259;53.304;9.816;2024-03-17T05:26:44;11.40;84.60
546;DHT22;259;53.304;9.816;2024-03-17T05:29:11;11.40;84.70
546;DHT22;259;53.304;9.816;2024-03-17T05:31:37;11.40;84.70
546;DHT22;259;53.304;9.816;2024-03-17T05:34:07;11.40;84.70
546;DHT22;259;53.304;9.816;2024-03-17T05:36:33;11.40;84.90
546;DHT22;259;53.304;9.816;2024-03-17T05:38:59;11.40;84.90
546;DHT22;259;53.304;9.816;2024-03-17T05:41:25;11.30;84.80
546;DHT22;259;53.304;9.816;2024-03-17T05:43:51;11.30;84.80
546;DHT22;259;53.304;9.816;2024-03-17T05:46:17;11.30;84.70
546;DHT22;259;53.304;9.816;2024-03-17T05:48:43;11.30;84.70
546;DHT22;259;53.304;9.816;2024-03-17T05:51:12;11.30;84.80
546;DHT22;259;53.304;9.816;2024-03-17T05:53:39;11.30;85.50
546;DHT22;259;53.304;9.816;2024-03-17T05:56:10;11.30;84.90
546;DHT22;259;53.304;9.816;2024-03-17T05:58:39;11.30;84.80
546;DHT22;259;53.304;9.816;2024-03-17T06:01:05;11.20;85.00
546;DHT22;259;53.304;9.816;2024-03-17T06:03:35;11.30;85.20
546;DHT22;259;53.304;9.816;2024-03-17T06:06:04;11.30;85.10
546;DHT22;259;53.304;9.816;2024-03-17T06:08:37;11.30;85.40
546;DHT22;259;53.304;9.816;2024-03-17T06:11:04;11.30;85.10
546;DHT22;259;53.304;9.816;2024-03-17T06:13:30;11.30;85.40
546;DHT22;259;53.304;9.816;2024-03-17T06:15:56;11.20;85.10
546;DHT22;259;53.304;9.816;2024-03-17T06:18:27;11.20;85.40
546;DHT22;259;53.304;9.816;2024-03-17T06:20:53;11.20;85.00
546;DHT22;259;53.304;9.816;2024-03-17T06:23:21;11.20;85.00
546;DHT22;259;53.304;9.816;2024-03-17T06:25:47;11.20;85.20
546;DHT22;259;53.304;9.816;2024-03-17T06:28:15;11.20;85.20
546;DHT22;259;53.304;9.816;2024-03-17T06:30:43;11.20;85.20
546;DHT22;259;53.304;9.816;2024-03-17T06:33:12;11.20;85.30
546;DHT22;259;53.304;9.816;2024-03-17T06:35:38;11.20;85.60
546;DHT22;259;53.304;9.816;2024-03-17T06:38:04;11.20;85.60
546;DHT22;259;53.304;9.816;2024-03-17T06:40:30;11.20;85.50
546;DHT22;259;53.304;9.816;2024-03-17T06:42:57;11.20;85.90
546;DHT22;259;53.304;9.816;2024-03-17T06:45:22;11.10;85.60
546;DHT22;259;53.304;9.816;2024-03-17T06:47:49;11.10;85.80
546;DHT22;259;53.304;9.816;2024-03-17T06:50:15;11.10;85.60
546;DHT22;259;53.304;9.816;2024-03-17T06:52:41;11.10;85.60
546;DHT22;259;53.304;9.816;2024-03-17T06:55:07;11.10;85.50
546;DHT22;259;53.304;9.816;2024-03-17T06:57:33;11.10;85.70
546;DHT22;259;53.304;9.816;2024-03-17T07:00:00;11.10;85.70
546;DHT22;259;53.304;9.816;2024-03-17T07:02:26;11.10;85.60
546;DHT22;259;53.304;9.816;2024-03-17T07:04:52;11.00;86.00
546;DHT22;259;53.304;9.816;2024-03-17T07:07:17;11.00;85.80
546;DHT22;259;53.304;9.816;2024-03-17T07:09:43;11.00;86.00
546;DHT22;259;53.304;9.816;2024-03-17T07:12:10;11.00;85.70
546;DHT22;259;53.304;9.816;2024-03-17T07:14:36;11.00;86.00
546;DHT22;259;53.304;9.816;2024-03-17T07:17:03;11.00;86.30
546;DHT22;259;53.304;9.816;2024-03-17T07:19:29;11.00;85.80
546;DHT22;259;53.304;9.816;2024-03-17T07:21:56;11.00;86.00
546;DHT22;259;53.304;9.816;2024-03-17T07:24:22;11.00;86.30
546;DHT22;259;53.304;9.816;2024-03-17T07:26:49;11.00;86.50
546;DHT22;259;53.304;9.816;2024-03-17T07:29:15;10.90;86.40
546;DHT22;259;53.304;9.816;2024-03-17T07:31:41;10.90;86.90
546;DHT22;259;53.304;9.816;2024-03-17T07:34:06;10.90;86.40
546;DHT22;259;53.304;9.816;2024-03-17T07:36:32;10.90;86.40
546;DHT22;259;53.304;9.816;2024-03-17T07:38:58;10.90;86.20
546;DHT22;259;53.304;9.816;2024-03-17T07:41:24;10.90;86.70
546;DHT22;259;53.304;9.816;2024-03-17T07:43:50;10.90;86.40
546;DHT22;259;53.304;9.816;2024-03-17T07:46:16;10.90;86.50
546;DHT22;259;53.304;9.816;2024-03-17T07:48:43;10.90;86.50
546;DHT22;259;53.304;9.816;2024-03-17T07:51:14;10.90;86.50
546;DHT22;259;53.304;9.816;2024-03-17T07:53:41;10.80;86.60
546;DHT22;259;53.304;9.816;2024-03-17T07:56:12;10.80;86.60
546;DHT22;259;53.304;9.816;2024-03-17T07:58:41;10.80;86.60
546;DHT22;259;53.304;9.816;2024-03-17T08:01:15;10.80;87.00
546;DHT22;259;53.304;9.816;2024-03-17T08:03:44;10.80;86.30
546;DHT22;259;53.304;9.816;2024-03-17T08:06:11;10.80;86.50
546;DHT22;259;53.304;9.816;2024-03-17T08:08:37;10.80;86.50
546;DHT22;259;53.304;9.816;2024-03-17T08:11:03;10.80;86.60
546;DHT22;259;53.304;9.816;2024-03-17T08:13:32;10.80;86.40
546;DHT22;259;53.304;9.816;2024-03-17T08:16:02;10.80;86.50
546;DHT22;259;53.304;9.816;2024-03-17T08:18:31;10.80;86.80
546;DHT22;259;53.304;9.816;2024-03-17T08:21:01;10.80;86.60
546;DHT22;259;53.304;9.816;2024-03-17T08:23:29;10.80;86.30
546;DHT22;259;53.304;9.816;2024-03-17T08:25:55;10.70;86.70
546;DHT22;259;53.304;9.816;2024-03-17T08:28:23;10.70;86.30
546;DHT22;259;53.304;9.816;2024-03-17T08:30:57;10.70;86.40
546;DHT22;259;53.304;9.816;2024-03-17T08:33:23;10.70;86.90
546;DHT22;259;53.304;9.816;2024-03-17T08:36:06;10.70;86.80
546;DHT22;259;53.304;9.816;2024-03-17T08:38:33;10.70;86.90
546;DHT22;259;53.304;9.816;2024-03-17T08:43:33;10.70;86.90
546;DHT22;259;53.304;9.816;2024-03-17T08:46:07;10.70;86.60
546;DHT22;259;53.304;9.816;2024-03-17T08:48:38;10.70;86.90
546;DHT22;259;53.304;9.816;2024-03-17T08:51:06;10.70;86.70
546;DHT22;259;53.304;9.816;2024-03-17T08:53:33;10.70;87.00
546;DHT22;259;53.304;9.816;2024-03-17T08:55:59;10.70;86.60
546;DHT22;259;53.304;9.816;2024-03-17T08:58:26;10.60;86.50
546;DHT22;259;53.304;9.816;2024-03-17T09:00:52;10.60;86.70
546;DHT22;259;53.304;9.816;2024-03-17T09:03:18;10.60;86.50
546;DHT22;259;53.304;9.816;2024-03-17T09:05:46;10.60;86.50
546;DHT22;259;53.304;9.816;2024-03-17T09:08:23;10.60;86.60
546;DHT22;259;53.304;9.816;2024-03-17T09:10:51;10.60;86.50
546;DHT22;259;53.304;9.816;2024-03-17T09:13:22;10.60;87.20
546;DHT22;259;53.304;9.816;2024-03-17T09:18:31;10.60;87.00
546;DHT22;259;53.304;9.816;2024-03-17T09:21:10;10.60;87.10
546;DHT22;259;53.304;9.816;2024-03-17T09:23:36;10.60;87.00
546;DHT22;259;53.304;9.816;2024-03-17T09:26:07;10.70;86.90
546;DHT22;259;53.304;9.816;2024-03-17T09:28:35;10.60;87.20
546;DHT22;259;53.304;9.816;2024-03-17T09:31:01;10.60;87.10
546;DHT22;259;53.304;9.816;2024-03-17T09:33:29;10.70;87.50
546;DHT22;259;53.304;9.816;2024-03-17T09:36:00;10.70;87.70
546;DHT22;259;53.304;9.816;2024-03-17T09:38:26;10.70;87.90
546;DHT22;259;53.304;9.816;2024-03-17T09:40:53;10.80;87.70
546;DHT22;259;53.304;9.816;2024-03-17T09:43:22;10.90;87.00
546;DHT22;259;53.304;9.816;2024-03-17T09:45:49;11.00;86.00
546;DHT22;259;53.304;9.816;2024-03-17T09:48:16;11.00;86.30
546;DHT22;259;53.304;9.816;2024-03-17T09:50:54;11.00;85.40
546;DHT22;259;53.304;9.816;2024-03-17T09:53:31;11.00;85.10
546;DHT22;259;53.304;9.816;2024-03-17T09:56:10;10.90;85.20
546;DHT22;259;53.304;9.816;2024-03-17T09:58:42;10.90;85.20
546;DHT22;259;53.304;9.816;2024-03-17T10:01:08;10.90;86.20
546;DHT22;259;53.304;9.816;2024-03-17T10:03:43;10.90;85.70
546;DHT22;259;53.304;9.816;2024-03-17T10:06:14;10.80;86.80
546;DHT22;259;53.304;9.816;2024-03-17T10:08:42;10.80;85.90
546;DHT22;259;53.304;9.816;2024-03-17T10:11:08;10.80;85.50
546;DHT22;259;53.304;9.816;2024-03-17T10:13:34;10.80;84.60
546;DHT22;259;53.304;9.816;2024-03-17T10:16:00;10.70;83.90
546;DHT22;259;53.304;9.816;2024-03-17T10:18:26;10.70;83.70
546;DHT22;259;53.304;9.816;2024-03-17T10:20:51;10.60;84.10
546;DHT22;259;53.304;9.816;2024-03-17T10:23:24;10.60;84.20
546;DHT22;259;53.304;9.816;2024-03-17T10:25:50;10.60;84.30
546;DHT22;259;53.304;9.816;2024-03-17T10:28:17;10.60;84.30
546;DHT22;259;53.304;9.816;2024-03-17T10:30:59;10.60;84.00
546;DHT22;259;53.304;9.816;2024-03-17T10:33:26;10.60;83.70
546;DHT22;259;53.304;9.816;2024-03-17T10:35:58;10.60;83.10
546;DHT22;259;53.304;9.816;2024-03-17T10:38:26;10.70;83.10
546;DHT22;259;53.304;9.816;2024-03-17T10:40:55;10.70;82.90
546;DHT22;259;53.304;9.816;2024-03-17T10:43:22;10.60;83.00
546;DHT22;259;53.304;9.816;2024-03-17T10:45:52;10.60;83.00
546;DHT22;259;53.304;9.816;2024-03-17T10:48:20;10.70;83.00
546;DHT22;259;53.304;9.816;2024-03-17T10:50:48;10.70;82.80
546;DHT22;259;53.304;9.816;2024-03-17T10:53:19;10.70;82.50
546;DHT22;259;53.304;9.816;2024-03-17T10:56:04;10.80;82.80
546;DHT22;259;53.304;9.816;2024-03-17T10:58:38;10.90;83.90
546;DHT22;259;53.304;9.816;2024-03-17T11:01:14;11.00;83.80
546;DHT22;259;53.304;9.816;2024-03-17T11:03:40;11.10;83.90
546;DHT22;259;53.304;9.816;2024-03-17T11:06:07;11.10;83.90
546;DHT22;259;53.304;9.816;2024-03-17T11:08:34;11.20;84.30
546;DHT22;259;53.304;9.816;2024-03-17T11:11:01;11.30;84.10
546;DHT22;259;53.304;9.816;2024-03-17T11:13:30;11.30;85.00
546;DHT22;259;53.304;9.816;2024-03-17T11:15:58;11.30;83.80
546;DHT22;259;53.304;9.816;2024-03-17T11:21:00;11.40;83.50
546;DHT22;259;53.304;9.816;2024-03-17T11:23:32;11.40;83.00
546;DHT22;259;53.304;9.816;2024-03-17T11:25:58;11.30;83.00
546;DHT22;259;53.304;9.816;2024-03-17T11:28:57;11.40;83.10
546;DHT22;259;53.304;9.816;2024-03-17T11:37:05;11.30;83.00
546;DHT22;259;53.304;9.816;2024-03-17T11:39:46;11.30;82.90
546;DHT22;259;53.304;9.816;2024-03-17T11:42:23;11.30;83.10
546;DHT22;259;53.304;9.816;2024-03-17T11:45:02;11.40;83.30
546;DHT22;259;53.304;9.816;2024-03-17T11:47:41;11.30;83.40
546;DHT22;259;53.304;9.816;2024-03-17T11:50:10;11.30;83.60
546;DHT22;259;53.304;9.816;2024-03-17T11:52:37;11.40;84.30
546;DHT22;259;53.304;9.816;2024-03-17T11:55:03;11.30;84.30
546;DHT22;259;53.304;9.816;2024-03-17T11:57:29;11.30;84.30
546;DHT22;259;53.304;9.816;2024-03-17T11:59:56;11.40;84.70
546;DHT22;259;53.304;9.816;2024-03-17T12:02:25;11.40;84.40
546;DHT22;259;53.304;9.816;2024-03-17T12:04:53;11.40;84.30
546;DHT22;259;53.304;9.816;2024-03-17T12:07:22;11.40;84.20
546;DHT22;259;53.304;9.816;2024-03-17T12:09:53;11.50;84.00
546;DHT22;259;53.304;9.816;2024-03-17T12:12:22;11.50;84.20
546;DHT22;259;53.304;9.816;2024-03-17T12:14:50;11.50;83.80
546;DHT22;259;53.304;9.816;2024-03-17T12:17:23;11.50;84.20
546;DHT22;259;53.304;9.816;2024-03-17T12:19:50;11.50;84.10
546;DHT22;259;53.304;9.816;2024-03-17T12:22:22;11.50;84.90
546;DHT22;259;53.304;9.816;2024-03-17T12:24:51;11.60;85.30
546;DHT22;259;53.304;9.816;2024-03-17T12:27:24;11.60;85.10
546;DHT22;259;53.304;9.816;2024-03-17T12:29:52;11.60;86.00
546;DHT22;259;53.304;9.816;2024-03-17T12:32:19;11.60;84.60
546;DHT22;259;53.304;9.816;2024-03-17T12:34:50;11.60;84.70
546;DHT22;259;53.304;9.816;2024-03-17T12:37:21;11.70;84.90
546;DHT22;259;53.304;9.816;2024-03-17T12:39:50;11.70;84.80
546;DHT22;259;53.304;9.816;2024-03-17T12:42:28;11.80;84.60
546;DHT22;259;53.304;9.816;2024-03-17T12:45:01;11.80;84.30
546;DHT22;259;53.304;9.816;2024-03-17T12:47:30;11.80;84.10
546;DHT22;259;53.304;9.816;2024-03-17T12:49:57;11.90;83.30
546;DHT22;259;53.304;9.816;2024-03-17T12:52:31;11.90;82.90
546;DHT22;259;53.304;9.816;2024-03-17T12:55:08;12.00;82.10
546;DHT22;259;53.304;9.816;2024-03-17T13:00:56;12.00;80.80
546;DHT22;259;53.304;9.816;2024-03-17T13:03:25;12.10;80.00
546;DHT22;259;53.304;9.816;2024-03-17T13:05:51;12.10;79.50
546;DHT22;259;53.304;9.816;2024-03-17T13:08:17;12.20;79.30
546;DHT22;259;53.304;9.816;2024-03-17T13:10:43;12.30;78.90
546;DHT22;259;53.304;9.816;2024-03-17T13:13:09;12.30;78.00
546;DHT22;259;53.304;9.816;2024-03-17T13:15:38;12.30;77.80
546;DHT22;259;53.304;9.816;2024-03-17T13:18:04;12.30;77.90
546;DHT22;259;53.304;9.816;2024-03-17T13:20:31;12.30;77.70
546;DHT22;259;53.304;9.816;2024-03-17T13:22:58;12.30;77.50
546;DHT22;259;53.304;9.816;2024-03-17T13:25:26;12.30;77.30
546;DHT22;259;53.304;9.816;2024-03-17T13:27:55;12.30;77.00
546;DHT22;259;53.304;9.816;2024-03-17T13:30:22;12.30;76.70
546;DHT22;259;53.304;9.816;2024-03-17T13:32:50;12.30;76.10
546;DHT22;259;53.304;9.816;2024-03-17T13:35:22;12.30;75.80
546;DHT22;259;53.304;9.816;2024-03-17T13:37:50;12.20;76.00
546;DHT22;259;53.304;9.816;2024-03-17T13:40:17;12.20;76.20
546;DHT22;259;53.304;9.816;2024-03-17T13:42:49;12.10;75.30
546;DHT22;259;53.304;9.816;2024-03-17T13:45:16;12.10;75.00
546;DHT22;259;53.304;9.816;2024-03-17T13:47:47;12.10;74.80
546;DHT22;259;53.304;9.816;2024-03-17T13:50:17;12.10;74.90
546;DHT22;259;53.304;9.816;2024-03-17T13:52:43;12.10;74.90
546;DHT22;259;53.304;9.816;2024-03-17T13:57:43;12.20;74.90
546;DHT22;259;53.304;9.816;2024-03-17T14:00:11;12.20;74.60
546;DHT22;259;53.304;9.816;2024-03-17T14:02:44;12.30;74.70
546;DHT22;259;53.304;9.816;2024-03-17T14:05:16;12.30;75.00
546;DHT22;259;53.304;9.816;2024-03-17T14:07:45;12.40;75.30
546;DHT22;259;53.304;9.816;2024-03-17T14:10:12;12.40;75.10
546;DHT22;259;53.304;9.816;2024-03-17T14:12:39;12.40;74.60
546;DHT22;259;53.304;9.816;2024-03-17T14:15:05;12.40;74.10
546;DHT22;259;53.304;9.816;2024-03-17T14:17:31;12.40;74.10
546;DHT22;259;53.304;9.816;2024-03-17T14:19:58;12.40;73.80
546;DHT22;259;53.304;9.816;2024-03-17T14:22:24;12.50;73.90
546;DHT22;259;53.304;9.816;2024-03-17T14:24:49;12.50;73.80
546;DHT22;259;53.304;9.816;2024-03-17T14:27:16;12.50;74.10
546;DHT22;259;53.304;9.816;2024-03-17T14:29:43;12.50;74.00
546;DHT22;259;53.304;9.816;2024-03-17T14:32:08;12.60;75.10
546;DHT22;259;53.304;9.816;2024-03-17T14:34:34;12.70;75.00
546;DHT22;259;53.304;9.816;2024-03-17T14:37:02;12.80;74.90
546;DHT22;259;53.304;9.816;2024-03-17T14:39:29;13.10;76.40
546;DHT22;259;53.304;9.816;2024-03-17T14:41:55;13.30;75.10
546;DHT22;259;53.304;9.816;2024-03-17T14:44:22;13.60;74.90
546;DHT22;259;53.304;9.816;2024-03-17T14:46:48;13.60;73.50
546;DHT22;259;53.304;9.816;2024-03-17T14:49:17;13.90;93.00
546;DHT22;259;53.304;9.816;2024-03-17T14:51:43;14.00;80.80
546;DHT22;259;53.304;9.816;2024-03-17T14:54:09;14.00;76.40
546;DHT22;259;53.304;9.816;2024-03-17T14:56:35;14.00;73.80
546;DHT22;259;53.304;9.816;2024-03-17T14:59:01;14.00;71.40
546;DHT22;259;53.304;9.816;2024-03-17T15:01:27;14.00;70.00
546;DHT22;259;53.304;9.816;2024-03-17T15:03:55;14.00;69.40
546;DHT22;259;53.304;9.816;2024-03-17T15:06:21;14.10;68.80
546;DHT22;259;53.304;9.816;2024-03-17T15:08:47;14.10;68.20
546;DHT22;259;53.304;9.816;2024-03-17T15:11:13;14.20;67.50
546;DHT22;259;53.304;9.816;2024-03-17T15:13:39;14.20;67.00
546;DHT22;259;53.304;9.816;2024-03-17T15:16:07;14.30;66.70
546;DHT22;259;53.304;9.816;2024-03-17T15:18:33;14.30;66.00
546;DHT22;259;53.304;9.816;2024-03-17T15:21:02;14.40;65.70
546;DHT22;259;53.304;9.816;2024-03-17T15:23:30;14.40;66.10
546;DHT22;259;53.304;9.816;2024-03-17T15:26:05;14.40;66.00
546;DHT22;259;53.304;9.816;2024-03-17T15:28:40;14.40;66.00
546;DHT22;259;53.304;9.816;2024-03-17T15:31:07;14.50;66.60
546;DHT22;259;53.304;9.816;2024-03-17T15:33:34;14.60;66.90
546;DHT22;259;53.304;9.816;2024-03-17T15:36:05;14.60;67.00
546;DHT22;259;53.304;9.816;2024-03-17T15:38:32;14.60;67.20
546;DHT22;259;53.304;9.816;2024-03-17T15:41:06;14.70;67.50
546;DHT22;259;53.304;9.816;2024-03-17T15:43:36;14.70;67.40
546;DHT22;259;53.304;9.816;2024-03-17T15:46:09;14.70;67.60
546;DHT22;259;53.304;9.816;2024-03-17T15:48:39;14.80;67.70
546;DHT22;259;53.304;9.816;2024-03-17T15:51:04;14.80;67.70
546;DHT22;259;53.304;9.816;2024-03-17T15:53:31;14.80;67.80
546;DHT22;259;53.304;9.816;2024-03-17T15:55:57;14.80;67.90
546;DHT22;259;53.304;9.816;2024-03-17T15:58:28;14.90;68.00
546;DHT22;259;53.304;9.816;2024-03-17T16:00:56;14.90;68.00
546;DHT22;259;53.304;9.816;2024-03-17T16:03:31;14.90;67.80
546;DHT22;259;53.304;9.816;2024-03-17T16:06:07;14.90;67.90
546;DHT22;259;53.304;9.816;2024-03-17T16:08:46;14.90;68.00
546;DHT22;259;53.304;9.816;2024-03-17T16:11:15;14.90;68.00
546;DHT22;259;53.304;9.816;2024-03-17T16:13:43;14.80;67.80
546;DHT22;259;53.304;9.816;2024-03-17T16:16:14;14.80;68.00
546;DHT22;259;53.304;9.816;2024-03-17T16:18:41;14.80;68.20
546;DHT22;259;53.304;9.816;2024-03-17T16:21:09;15.00;69.10
546;DHT22;259;53.304;9.816;2024-03-17T16:23:42;15.00;70.00
546;DHT22;259;53.304;9.816;2024-03-17T16:26:10;14.90;69.00
546;DHT22;259;53.304;9.816;2024-03-17T16:28:37;14.90;67.90
546;DHT22;259;53.304;9.816;2024-03-17T16:31:03;14.80;66.90
546;DHT22;259;53.304;9.816;2024-03-17T16:33:33;14.90;65.20
546;DHT22;259;53.304;9.816;2024-03-17T16:35:59;14.90;64.90
546;DHT22;259;53.304;9.816;2024-03-17T16:38:26;14.80;65.20
546;DHT22;259;53.304;9.816;2024-03-17T16:40:57;14.70;65.70
546;DHT22;259;53.304;9.816;2024-03-17T16:43:58;14.70;66.20
546;DHT22;259;53.304;9.816;2024-03-17T16:49:18;14.60;66.90
546;DHT22;259;53.304;9.816;2024-03-17T16:51:48;14.50;67.30
546;DHT22;259;53.304;9.816;2024-03-17T16:54:18;14.50;67.60
546;DHT22;259;53.304;9.816;2024-03-17T16:56:45;14.50;67.80
546;DHT22;259;53.304;9.816;2024-03-17T16:59:11;14.40;67.90
546;DHT22;259;53.304;9.816;2024-03-17T17:01:37;14.40;68.20